Time;durP1;ratioP1;P1;durP2;ratioP2;P2;SDS_P1;SDS_P2;PMS_P1;PMS_P2;Temp;Humidity;BMP_temperature;BMP_pressure;BME280_temperature;BME280_humidity;BME280_pressure;Samples;Min_cycle;Max_cycle;Signal;HPM_P1;HPM_P2
2022/09/25 00:02:02;;;;;;;143.73;31.83;;;6.10;99.90;;;;;;4374867;28;656561;-85
2022/09/25 00:04:51;;;;;;;92.10;22.73;;;6.20;99.90;;;;;;4360758;28;658357;-85
2022/09/25 00:07:38;;;;;;;156.90;36.43;;;6.20;99.90;;;;;;4337351;28;657982;-85
2022/09/25 00:10:27;;;;;;;58.88;16.48;;;6.30;99.90;;;;;;4339769;28;658773;-85
2022/09/25 00:13:14;;;;;;;47.77;17.90;;;6.30;99.90;;;;;;4375634;28;657035;-85
2022/09/25 00:16:03;;;;;;;54.77;19.33;;;6.40;99.90;;;;;;4353042;28;657982;-85
2022/09/25 00:21:56;;;;;;;91.93;26.80;;;6.50;99.90;;;;;;4354022;28;657466;-85
2022/09/25 00:24:44;;;;;;;45.13;19.10;;;6.40;99.90;;;;;;4362742;28;658382;-84
2022/09/25 00:27:31;;;;;;;32.93;13.63;;;6.50;99.90;;;;;;4357818;28;657561;-86
2022/09/25 00:30:18;;;;;;;55.77;17.07;;;6.60;99.90;;;;;;4361573;28;657802;-85
2022/09/25 00:33:05;;;;;;;41.90;17.17;;;6.50;99.90;;;;;;4343901;28;657768;-85
2022/09/25 00:35:52;;;;;;;48.07;16.93;;;6.50;99.90;;;;;;4365492;28;658191;-85
2022/09/25 00:38:42;;;;;;;39.67;17.57;;;6.60;99.90;;;;;;4370019;28;657863;-85
2022/09/25 00:41:30;;;;;;;41.27;14.77;;;6.60;99.90;;;;;;4342157;28;657396;-85
2022/09/25 00:44:49;;;;;;;35.00;14.00;;;6.70;99.90;;;;;;4356804;28;658027;-85
2022/09/25 00:47:45;;;;;;;27.57;12.47;;;6.80;99.90;;;;;;4352300;28;657533;-86
2022/09/25 00:50:34;;;;;;;32.27;14.00;;;6.80;99.90;;;;;;4358695;28;657887;-85
2022/09/25 00:53:22;;;;;;;26.87;11.43;;;6.90;99.90;;;;;;4356957;28;657414;-85
2022/09/25 00:56:10;;;;;;;26.47;12.57;;;7.00;99.90;;;;;;4355038;28;658739;-86
2022/09/25 00:58:57;;;;;;;25.33;11.83;;;7.10;99.90;;;;;;4330240;28;658246;-85
2022/09/25 01:01:44;;;;;;;22.73;11.23;;;7.10;99.90;;;;;;4371709;28;657426;-85
2022/09/25 01:04:33;;;;;;;27.10;11.87;;;7.10;99.90;;;;;;4329228;28;658494;-86
2022/09/25 01:07:20;;;;;;;27.63;12.73;;;7.20;99.90;;;;;;4343399;28;657283;-86
2022/09/25 01:10:08;;;;;;;26.03;11.67;;;7.30;99.90;;;;;;4374361;28;657190;-85
2022/09/25 01:12:57;;;;;;;28.25;11.88;;;7.20;99.90;;;;;;4351624;28;657797;-86
2022/09/25 01:15:45;;;;;;;26.10;11.80;;;7.30;99.90;;;;;;4368333;28;658118;-84
2022/09/25 01:18:40;;;;;;;22.47;10.70;;;7.40;99.90;;;;;;4349463;28;657816;-85
2022/09/25 01:21:33;;;;;;;25.57;11.63;;;7.40;99.90;;;;;;4338767;28;657816;-84
2022/09/25 01:24:36;;;;;;;20.20;9.83;;;7.40;99.90;;;;;;4330066;28;657931;-85
2022/09/25 01:27:32;;;;;;;21.23;11.27;;;7.40;99.90;;;;;;4339115;28;656705;-85
2022/09/25 01:30:22;;;;;;;21.47;10.27;;;7.50;99.90;;;;;;4366414;28;657351;-85
2022/09/25 01:33:10;;;;;;;23.20;10.20;;;7.60;99.90;;;;;;4372728;28;658011;-85
2022/09/25 01:36:00;;;;;;;21.70;9.90;;;7.60;99.90;;;;;;4338710;28;658603;-85
2022/09/25 01:38:49;;;;;;;27.03;11.43;;;7.70;99.90;;;;;;4349569;28;657629;-85
2022/09/25 01:41:39;;;;;;;20.57;10.47;;;7.70;99.90;;;;;;4351929;28;657871;-86
2022/09/25 01:44:28;;;;;;;25.00;10.90;;;7.70;99.90;;;;;;4354761;28;657852;-85
2022/09/25 01:47:21;;;;;;;25.13;11.60;;;7.70;99.90;;;;;;4347414;28;657560;-85
2022/09/25 01:50:09;;;;;;;23.67;11.33;;;7.80;99.90;;;;;;4349638;28;658010;-85
2022/09/25 01:52:57;;;;;;;21.77;11.87;;;7.80;99.90;;;;;;4355792;28;657754;-86
2022/09/25 01:55:46;;;;;;;19.27;11.47;;;7.90;99.90;;;;;;4371736;28;657283;-86
2022/09/25 01:58:35;;;;;;;18.17;11.00;;;7.90;99.90;;;;;;4358759;28;659946;-86
2022/09/25 02:01:23;;;;;;;44.87;15.97;;;8.00;99.90;;;;;;4344639;28;658086;-85
2022/09/25 02:04:13;;;;;;;51.00;18.03;;;8.00;99.90;;;;;;4345090;28;657475;-86
2022/09/25 02:07:02;;;;;;;41.97;15.73;;;8.00;99.90;;;;;;4354548;28;658110;-85
2022/09/25 02:09:51;;;;;;;40.73;16.37;;;8.00;99.90;;;;;;4374602;28;658004;-83
2022/09/25 02:12:40;;;;;;;37.60;15.60;;;7.90;99.90;;;;;;4347794;28;658031;-85
2022/09/25 02:15:29;;;;;;;24.90;12.00;;;7.90;99.90;;;;;;4349882;28;657422;-85
2022/09/25 02:21:41;;;;;;;32.60;14.00;;;7.90;99.90;;;;;;4311177;28;657772;-85
2022/09/25 02:24:32;;;;;;;32.50;15.10;;;7.90;99.90;;;;;;4348598;28;657982;-84
2022/09/25 02:27:19;;;;;;;30.43;13.63;;;7.90;99.90;;;;;;4349202;28;657670;-85
2022/09/25 02:30:07;;;;;;;30.60;12.97;;;8.00;99.90;;;;;;4351233;28;657876;-86
2022/09/25 02:32:56;;;;;;;67.33;23.73;;;8.00;99.90;;;;;;4382199;28;657997;-85
2022/09/25 02:35:43;;;;;;;36.17;16.57;;;8.00;99.90;;;;;;4352323;28;657620;-85
2022/09/25 02:38:32;;;;;;;47.77;19.33;;;8.00;99.90;;;;;;4352524;28;658330;-85
2022/09/25 02:41:25;;;;;;;36.90;16.67;;;8.00;99.90;;;;;;4376383;28;657115;-84
2022/09/25 02:44:17;;;;;;;47.43;17.77;;;8.00;99.90;;;;;;4348708;28;657558;-85
2022/09/25 02:47:13;;;;;;;31.83;13.53;;;8.00;99.90;;;;;;4356748;28;657985;-84
2022/09/25 02:50:04;;;;;;;46.07;16.87;;;8.00;99.90;;;;;;4342527;28;658135;-85
2022/09/25 02:52:53;;;;;;;34.40;15.10;;;8.00;99.90;;;;;;4353176;28;658116;-84
2022/09/25 02:55:45;;;;;;;37.93;15.97;;;8.00;99.90;;;;;;4354603;28;658106;-85
2022/09/25 02:58:34;;;;;;;29.97;13.07;;;8.00;99.90;;;;;;4352030;28;658043;-85
2022/09/25 03:01:23;;;;;;;38.80;15.43;;;8.00;99.90;;;;;;4352209;28;657605;-85
2022/09/25 03:04:10;;;;;;;53.20;18.47;;;8.00;99.90;;;;;;4348745;28;657801;-85
2022/09/25 03:06:57;;;;;;;48.70;18.27;;;8.00;99.90;;;;;;4376960;28;658713;-84
2022/09/25 03:09:46;;;;;;;66.53;22.13;;;8.00;99.90;;;;;;4375422;28;657601;-84
2022/09/25 03:12:37;;;;;;;31.77;12.93;;;8.00;99.90;;;;;;4346778;28;658142;-84
2022/09/25 03:15:24;;;;;;;32.83;15.37;;;8.00;99.90;;;;;;4343687;28;657552;-84
2022/09/25 03:18:12;;;;;;;38.87;17.87;;;8.00;99.90;;;;;;4334117;28;658086;-85
2022/09/25 03:20:59;;;;;;;62.93;20.83;;;8.00;99.90;;;;;;4373279;28;657923;-84
2022/09/25 03:23:46;;;;;;;137.27;34.00;;;8.00;99.90;;;;;;4350254;28;658027;-85
2022/09/25 03:26:33;;;;;;;172.07;35.10;;;8.00;99.90;;;;;;4365581;28;659212;-85
2022/09/25 03:29:22;;;;;;;129.13;31.03;;;8.00;99.90;;;;;;4343414;28;658440;-85
2022/09/25 03:32:09;;;;;;;99.60;26.98;;;8.00;99.90;;;;;;4350056;28;658275;-85
2022/09/25 03:34:56;;;;;;;105.40;27.47;;;8.00;99.90;;;;;;4341746;28;657137;-85
2022/09/25 03:37:43;;;;;;;121.40;29.20;;;8.00;99.90;;;;;;4373404;28;659237;-85
2022/09/25 03:40:30;;;;;;;74.33;19.87;;;7.90;99.90;;;;;;4356413;28;658633;-85
2022/09/25 03:43:17;;;;;;;89.20;25.90;;;7.90;99.90;;;;;;4377452;28;657637;-85
2022/09/25 03:46:06;;;;;;;147.73;40.07;;;7.90;99.90;;;;;;4371238;28;657456;-84
2022/09/25 03:48:54;;;;;;;106.90;33.73;;;7.90;99.90;;;;;;4346111;28;658917;-84
2022/09/25 03:51:41;;;;;;;45.22;17.10;;;7.90;99.90;;;;;;4330003;28;658719;-85
2022/09/25 03:54:29;;;;;;;24.03;10.70;;;7.80;99.90;;;;;;4371693;28;657489;-85
2022/09/25 03:57:16;;;;;;;22.00;10.60;;;7.80;99.90;;;;;;4341050;28;657997;-85
2022/09/25 04:00:03;;;;;;;40.10;20.53;;;7.90;99.90;;;;;;4370739;28;658019;-84
2022/09/25 04:02:52;;;;;;;40.33;21.83;;;7.80;99.90;;;;;;4353018;28;657649;-87
2022/09/25 04:05:39;;;;;;;26.43;16.17;;;7.90;99.90;;;;;;4361244;28;661194;-88
2022/09/25 04:08:27;;;;;;;42.97;20.17;;;7.90;99.90;;;;;;4348056;28;657719;-84
2022/09/25 04:11:14;;;;;;;57.63;25.53;;;7.90;99.90;;;;;;4367779;28;657540;-86
2022/09/25 04:14:01;;;;;;;64.70;31.87;;;7.90;99.90;;;;;;4352866;28;657900;-84
2022/09/25 04:16:49;;;;;;;64.10;32.53;;;7.90;99.90;;;;;;4374780;28;658374;-85
2022/09/25 04:19:37;;;;;;;63.00;28.17;;;7.90;99.90;;;;;;4347003;28;657935;-84
2022/09/25 04:22:24;;;;;;;50.80;27.87;;;7.90;99.90;;;;;;4374106;28;657813;-84
2022/09/25 04:25:13;;;;;;;50.07;18.63;;;7.90;99.90;;;;;;4353063;28;658122;-84
2022/09/25 04:28:00;;;;;;;46.30;21.50;;;8.00;99.90;;;;;;4365867;28;657349;-83
2022/09/25 04:30:48;;;;;;;47.77;23.30;;;7.90;99.90;;;;;;4368578;28;658040;-84
2022/09/25 04:33:46;;;;;;;58.13;28.90;;;8.00;99.90;;;;;;4361469;28;657511;-85
2022/09/25 04:36:35;;;;;;;56.57;27.07;;;8.00;99.90;;;;;;4350856;28;657944;-83
2022/09/25 04:39:22;;;;;;;32.87;17.37;;;8.00;99.90;;;;;;4344281;28;657877;-85
2022/09/25 04:42:09;;;;;;;34.73;19.13;;;8.00;99.90;;;;;;4361260;28;657676;-85
2022/09/25 04:44:57;;;;;;;48.13;25.63;;;8.00;99.90;;;;;;4349707;28;657101;-84
2022/09/25 04:47:44;;;;;;;45.97;23.67;;;8.00;99.90;;;;;;4374836;28;657641;-84
2022/09/25 04:50:31;;;;;;;48.20;24.60;;;8.00;99.90;;;;;;4354647;28;658131;-85
2022/09/25 04:53:20;;;;;;;52.73;26.10;;;8.00;99.90;;;;;;4377791;28;657800;-85
2022/09/25 04:56:07;;;;;;;39.97;21.87;;;8.00;99.90;;;;;;4352720;28;656880;-85
2022/09/25 04:58:54;;;;;;;41.63;25.93;;;8.10;99.90;;;;;;4351706;28;657850;-85
2022/09/25 05:01:41;;;;;;;40.07;21.83;;;8.20;99.90;;;;;;4324896;28;657846;-84
2022/09/25 05:04:28;;;;;;;38.77;21.40;;;8.20;99.90;;;;;;4352573;28;657950;-85
2022/09/25 05:07:16;;;;;;;47.80;24.97;;;8.20;99.90;;;;;;4333973;28;657916;-84
2022/09/25 05:10:05;;;;;;;35.53;20.33;;;8.30;99.90;;;;;;4356054;28;658177;-85
2022/09/25 05:12:55;;;;;;;32.40;21.17;;;8.40;99.90;;;;;;4337957;28;657896;-84
2022/09/25 05:15:42;;;;;;;36.80;21.97;;;8.40;99.90;;;;;;4331714;28;658041;-84
2022/09/25 05:18:29;;;;;;;39.67;21.00;;;8.50;99.90;;;;;;4354871;28;657889;-85
2022/09/25 05:21:16;;;;;;;43.67;22.30;;;8.60;99.90;;;;;;4334975;28;657469;-86
2022/09/25 05:24:04;;;;;;;386.43;80.93;;;8.60;99.90;;;;;;4365697;28;658052;-86
2022/09/25 05:26:52;;;;;;;947.77;295.33;;;8.70;99.90;;;;;;4338015;28;658873;-86
2022/09/25 05:29:40;;;;;;;497.67;141.63;;;8.80;99.90;;;;;;4358812;28;659172;-86
2022/09/25 05:32:27;;;;;;;371.30;106.83;;;8.90;99.90;;;;;;4336140;28;659847;-85
2022/09/25 05:35:14;;;;;;;146.57;51.23;;;9.00;99.90;;;;;;4361923;28;659559;-85
2022/09/25 05:38:01;;;;;;;171.33;54.37;;;9.10;99.90;;;;;;4330815;28;658928;-86
2022/09/25 05:40:48;;;;;;;61.87;25.17;;;9.20;99.90;;;;;;4359431;28;658749;-86
2022/09/25 05:43:40;;;;;;;106.93;30.97;;;9.30;99.90;;;;;;4340698;28;657327;-85
2022/09/25 05:46:27;;;;;;;45.37;19.27;;;9.40;99.90;;;;;;4336585;28;658886;-85
2022/09/25 05:49:14;;;;;;;36.73;18.53;;;9.50;99.90;;;;;;4360162;28;657009;-85
2022/09/25 05:52:02;;;;;;;62.43;24.53;;;9.70;99.90;;;;;;4347621;28;657818;-87
2022/09/25 05:54:49;;;;;;;63.53;25.37;;;9.90;99.90;;;;;;4363136;28;658133;-86
2022/09/25 05:57:36;;;;;;;68.33;28.37;;;10.00;99.90;;;;;;4338298;28;657343;-85
2022/09/25 06:00:25;;;;;;;80.83;31.87;;;10.20;99.90;;;;;;4365988;28;659175;-86
2022/09/25 06:03:12;;;;;;;62.17;24.17;;;10.40;99.90;;;;;;4348506;28;659004;-86
2022/09/25 06:05:59;;;;;;;80.10;26.77;;;10.70;99.90;;;;;;4374160;28;658070;-87
2022/09/25 06:08:46;;;;;;;55.57;21.97;;;10.80;99.90;;;;;;4349865;28;658738;-86
2022/09/25 06:11:34;;;;;;;46.47;21.07;;;10.90;99.90;;;;;;4371819;28;658709;-86
2022/09/25 06:14:21;;;;;;;60.50;21.70;;;11.00;99.90;;;;;;4357492;28;658514;-87
2022/09/25 06:17:10;;;;;;;55.23;20.87;;;11.10;99.90;;;;;;4381817;28;659478;-86
2022/09/25 06:19:57;;;;;;;51.77;19.60;;;11.30;99.90;;;;;;4340977;28;658971;-86
2022/09/25 06:22:44;;;;;;;54.13;20.30;;;11.30;99.90;;;;;;4357741;28;658260;-85
2022/09/25 06:25:32;;;;;;;40.27;16.27;;;11.30;99.90;;;;;;4346612;28;658625;-85
2022/09/25 06:28:19;;;;;;;39.03;16.53;;;11.30;99.90;;;;;;4369731;28;658955;-85
2022/09/25 06:31:06;;;;;;;39.67;16.67;;;11.30;99.90;;;;;;4356895;28;658768;-84
2022/09/25 06:33:55;;;;;;;32.17;14.87;;;11.40;99.90;;;;;;4379140;28;658628;-85
2022/09/25 06:36:42;;;;;;;30.13;13.20;;;11.40;99.90;;;;;;4352543;28;659007;-85
2022/09/25 06:39:32;;;;;;;26.93;12.37;;;11.50;99.90;;;;;;4374905;28;659234;-85
2022/09/25 06:42:19;;;;;;;26.53;13.07;;;11.50;99.90;;;;;;4335959;28;659451;-85
2022/09/25 06:45:07;;;;;;;26.30;12.83;;;11.50;99.90;;;;;;4349721;28;658592;-85
2022/09/25 06:47:56;;;;;;;29.03;14.63;;;11.60;99.90;;;;;;4371503;28;658488;-85
2022/09/25 06:50:46;;;;;;;26.35;13.73;;;11.60;99.90;;;;;;4336805;28;658787;-85
2022/09/25 06:53:33;;;;;;;30.97;14.77;;;11.70;99.90;;;;;;4352424;28;658965;-86
2022/09/25 06:56:20;;;;;;;29.90;13.77;;;11.80;99.90;;;;;;4348060;28;658400;-86
2022/09/25 06:59:08;;;;;;;33.70;14.63;;;11.80;99.90;;;;;;4375913;28;658447;-85
2022/09/25 07:03:43;;;;;;;27.00;13.73;;;11.70;99.90;;;;;;4343805;28;658732;-85
2022/09/25 07:05:01;;;;;;;30.67;14.60;;;11.60;99.90;;;;;;4340422;28;658646;-85
2022/09/25 07:07:50;;;;;;;26.60;13.67;;;11.40;99.90;;;;;;4373187;28;658664;-85
2022/09/25 07:10:37;;;;;;;23.93;10.50;;;11.50;99.90;;;;;;4351304;28;658382;-85
2022/09/25 07:13:25;;;;;;;15.60;8.60;;;11.40;99.90;;;;;;4365634;28;658155;-85
2022/09/25 07:16:13;;;;;;;11.87;7.90;;;11.40;99.90;;;;;;4344543;28;658230;-87
2022/09/25 07:19:02;;;;;;;9.53;6.47;;;11.30;99.90;;;;;;4345988;28;657457;-86
2022/09/25 07:21:50;;;;;;;12.13;6.77;;;11.20;99.90;;;;;;4379032;28;656601;-86
2022/09/25 07:24:38;;;;;;;12.27;6.03;;;11.30;99.90;;;;;;4348713;28;658419;-87
2022/09/25 07:27:25;;;;;;;10.70;6.50;;;11.20;99.90;;;;;;4353603;28;657754;-86
2022/09/25 07:30:13;;;;;;;14.30;7.40;;;11.00;99.90;;;;;;4374886;28;658594;-87
2022/09/25 07:33:00;;;;;;;12.23;7.30;;;11.10;99.90;;;;;;4349931;28;658007;-86
2022/09/25 07:35:47;;;;;;;14.75;7.63;;;11.20;99.90;;;;;;4373752;28;657293;-89
2022/09/25 07:38:35;;;;;;;14.23;8.47;;;11.30;99.90;;;;;;4368417;28;658285;-88
2022/09/25 07:41:24;;;;;;;14.43;8.60;;;11.30;99.90;;;;;;4354152;28;658118;-87
2022/09/25 07:44:11;;;;;;;13.37;7.43;;;11.30;99.90;;;;;;4352148;28;657564;-87
2022/09/25 07:47:00;;;;;;;15.13;8.17;;;11.10;99.90;;;;;;4355924;28;657653;-87
2022/09/25 07:49:47;;;;;;;13.50;7.40;;;11.10;99.90;;;;;;4332450;28;658366;-87
2022/09/25 07:52:34;;;;;;;9.73;6.73;;;11.00;99.90;;;;;;4375545;28;657526;-87
2022/09/25 07:55:21;;;;;;;10.80;6.43;;;11.00;99.90;;;;;;4351567;28;656866;-87
2022/09/25 07:58:10;;;;;;;12.97;6.40;;;11.00;99.90;;;;;;4378148;28;657203;-87
2022/09/25 08:00:59;;;;;;;13.00;6.97;;;11.10;99.90;;;;;;4341821;28;657783;-86
2022/09/25 08:03:46;;;;;;;9.93;6.27;;;11.30;99.90;;;;;;4342168;28;658127;-86
2022/09/25 08:06:34;;;;;;;15.67;6.50;;;11.40;99.90;;;;;;4363446;28;656732;-86
2022/09/25 08:09:21;;;;;;;9.60;6.13;;;11.50;99.90;;;;;;4344298;28;657812;-87
2022/09/25 08:12:11;;;;;;;10.83;6.23;;;11.60;99.90;;;;;;4369928;28;656534;-87
2022/09/25 08:15:00;;;;;;;11.23;6.43;;;11.60;99.90;;;;;;4348116;28;657345;-87
2022/09/25 08:17:47;;;;;;;16.43;6.77;;;11.50;99.90;;;;;;4337973;28;657721;-88
2022/09/25 08:20:38;;;;;;;11.93;6.63;;;11.50;99.90;;;;;;4367892;28;657389;-88
2022/09/25 08:23:26;;;;;;;11.57;7.23;;;11.50;99.90;;;;;;4333525;28;657646;-86
2022/09/25 08:26:13;;;;;;;11.07;7.73;;;11.50;99.90;;;;;;4343930;28;657837;-87
2022/09/25 08:29:01;;;;;;;18.00;8.70;;;11.60;99.90;;;;;;4310728;28;657776;-87
2022/09/25 08:31:49;;;;;;;18.30;10.07;;;11.70;99.90;;;;;;4358467;28;658490;-87
2022/09/25 08:34:36;;;;;;;16.07;10.00;;;11.80;99.90;;;;;;4346239;28;658930;-87
2022/09/25 08:37:23;;;;;;;24.80;16.07;;;11.90;99.90;;;;;;4354942;28;659020;-88
2022/09/25 08:40:17;;;;;;;32.90;18.17;;;12.00;99.90;;;;;;4342654;28;658980;-87
2022/09/25 08:43:04;;;;;;;19.63;11.30;;;12.20;99.90;;;;;;4332609;28;658979;-88
2022/09/25 08:49:05;;;;;;;27.93;15.70;;;12.00;99.90;;;;;;4332713;28;659064;-87
2022/09/25 08:51:52;;;;;;;25.37;16.93;;;12.00;99.90;;;;;;4325292;28;659594;-87
2022/09/25 08:54:40;;;;;;;30.23;16.73;;;12.10;99.90;;;;;;4340547;28;659330;-86
2022/09/25 08:57:30;;;;;;;25.10;15.47;;;12.10;99.90;;;;;;4351263;28;658594;-87
2022/09/25 09:00:19;;;;;;;20.80;13.90;;;12.20;99.90;;;;;;4343842;28;659005;-87
2022/09/25 09:03:06;;;;;;;20.03;13.17;;;12.30;99.90;;;;;;4358405;28;658758;-87
2022/09/25 09:05:58;;;;;;;24.03;12.90;;;12.30;99.90;;;;;;4373241;28;658617;-87
2022/09/25 09:08:48;;;;;;;21.40;12.83;;;12.20;99.90;;;;;;4311161;28;658429;-86
2022/09/25 09:11:36;;;;;;;21.23;12.13;;;12.20;99.90;;;;;;4364944;28;658766;-86
2022/09/25 09:14:24;;;;;;;20.33;11.80;;;12.20;99.90;;;;;;4380218;28;658561;-86
2022/09/25 09:17:16;;;;;;;19.40;12.03;;;12.20;99.90;;;;;;4346523;28;658770;-86
2022/09/25 09:20:13;;;;;;;23.37;12.53;;;12.10;99.90;;;;;;4357538;28;659087;-87
2022/09/25 09:23:02;;;;;;;17.50;11.57;;;12.20;99.90;;;;;;4349304;28;659011;-87
2022/09/25 09:25:55;;;;;;;16.83;11.40;;;12.40;99.90;;;;;;4381580;28;658312;-86
2022/09/25 09:29:04;;;;;;;19.93;12.90;;;12.50;99.90;;;;;;4351920;28;659894;-87
2022/09/25 09:31:56;;;;;;;24.70;13.03;;;12.40;99.90;;;;;;4353188;28;658826;-86
2022/09/25 09:34:52;;;;;;;25.60;14.47;;;12.30;99.90;;;;;;4342612;28;658809;-86
2022/09/25 09:37:51;;;;;;;22.03;13.50;;;12.30;99.90;;;;;;4340359;28;658813;-87
2022/09/25 09:41:08;;;;;;;21.40;13.80;;;12.20;99.90;;;;;;4348328;28;659364;-87
2022/09/25 09:44:03;;;;;;;44.80;25.77;;;12.30;99.90;;;;;;4353856;28;659185;-87
2022/09/25 09:46:55;;;;;;;50.07;26.23;;;12.50;99.90;;;;;;4328425;28;659383;-86
2022/09/25 09:49:44;;;;;;;52.97;28.37;;;12.60;99.90;;;;;;4342689;28;659740;-86
2022/09/25 09:52:34;;;;;;;47.10;27.00;;;12.70;99.90;;;;;;4342091;28;659260;-86
2022/09/25 09:55:23;;;;;;;37.60;21.87;;;12.80;99.90;;;;;;4338616;28;658442;-87
2022/09/25 09:58:14;;;;;;;39.37;22.33;;;13.00;99.90;;;;;;4335558;28;659096;-86
2022/09/25 10:01:01;;;;;;;38.67;23.07;;;13.10;99.90;;;;;;4330826;28;658798;-86
2022/09/25 10:03:52;;;;;;;46.07;23.90;;;12.90;99.90;;;;;;4355614;28;659855;-86
2022/09/25 10:06:42;;;;;;;39.27;22.77;;;13.00;99.90;;;;;;4323202;28;659461;-86
2022/09/25 10:09:29;;;;;;;32.40;19.43;;;13.20;99.90;;;;;;4336118;28;658525;-87
2022/09/25 10:12:24;;;;;;;25.33;13.30;;;13.30;99.90;;;;;;4334420;28;658719;-86
2022/09/25 10:15:21;;;;;;;16.70;10.83;;;13.50;99.90;;;;;;4344471;28;658956;-86
2022/09/25 10:18:08;;;;;;;17.57;10.70;;;13.70;99.90;;;;;;4332415;28;658819;-86
2022/09/25 10:20:58;;;;;;;16.27;10.47;;;13.80;99.90;;;;;;4344019;28;658380;-86
2022/09/25 10:23:49;;;;;;;14.63;9.97;;;13.80;99.90;;;;;;4353644;28;658409;-86
2022/09/25 10:26:36;;;;;;;15.27;10.30;;;13.70;99.90;;;;;;4357727;28;657837;-86
2022/09/25 10:29:26;;;;;;;15.87;9.80;;;13.60;99.90;;;;;;4380807;28;658501;-86
2022/09/25 10:32:16;;;;;;;17.73;11.67;;;13.60;99.90;;;;;;4361971;28;658662;-86
2022/09/25 10:35:03;;;;;;;17.20;10.30;;;13.70;99.90;;;;;;4357169;28;659064;-86
2022/09/25 10:37:52;;;;;;;15.00;10.40;;;13.90;99.90;;;;;;4352962;28;659435;-85
2022/09/25 10:40:41;;;;;;;14.33;10.00;;;14.20;99.90;;;;;;4379970;28;658392;-85
2022/09/25 10:43:28;;;;;;;17.10;9.40;;;14.50;99.90;;;;;;4367653;28;658896;-86
2022/09/25 10:50:09;;;;;;;9.77;7.83;;;15.00;99.90;;;;;;4359308;28;657517;-85
2022/09/25 10:52:48;;;;;;;11.43;7.67;;;15.50;99.90;;;;;;4302114;28;657738;-85
2022/09/25 10:55:36;;;;;;;14.93;8.17;;;15.80;99.90;;;;;;4361765;28;657476;-85
2022/09/25 10:58:26;;;;;;;25.13;13.77;;;15.80;99.90;;;;;;4377925;28;659306;-85
2022/09/25 11:01:14;;;;;;;14.17;7.97;;;15.90;99.90;;;;;;4334055;28;659833;-85
2022/09/25 11:04:03;;;;;;;11.97;6.80;;;16.00;99.90;;;;;;4333390;28;658148;-86
2022/09/25 11:06:52;;;;;;;9.90;6.57;;;16.50;99.90;;;;;;4335537;28;657631;-86
2022/09/25 11:09:43;;;;;;;10.60;6.60;;;16.40;99.90;;;;;;4357791;28;657056;-86
2022/09/25 11:12:31;;;;;;;9.43;6.27;;;16.90;99.90;;;;;;4348358;28;657619;-85
2022/09/25 11:15:19;;;;;;;8.17;5.83;;;17.20;99.90;;;;;;4366277;28;656782;-86
2022/09/25 11:18:33;;;;;;;9.33;5.70;;;17.60;99.90;;;;;;4336565;28;656896;-86
2022/09/25 11:21:26;;;;;;;10.97;6.40;;;18.20;99.90;;;;;;4326837;28;656781;-86
2022/09/25 11:24:14;;;;;;;9.93;5.57;;;18.30;99.90;;;;;;4331853;28;657691;-85
2022/09/25 11:27:04;;;;;;;13.43;6.53;;;18.00;99.90;;;;;;4339148;28;657011;-86
2022/09/25 11:29:57;;;;;;;12.17;6.00;;;17.20;99.90;;;;;;4339136;28;657582;-86
2022/09/25 11:32:47;;;;;;;9.07;5.00;;;17.10;99.90;;;;;;4334390;28;658210;-86
2022/09/25 11:35:41;;;;;;;11.73;5.30;;;17.00;99.90;;;;;;4339916;28;656818;-87
2022/09/25 11:41:40;;;;;;;7.07;5.20;;;16.90;99.90;;;;;;4337214;28;657092;-87
2022/09/25 11:44:30;;;;;;;10.17;5.50;;;17.10;99.90;;;;;;4337723;28;656788;-86
2022/09/25 11:47:20;;;;;;;9.70;6.17;;;17.00;99.90;;;;;;4336127;28;658565;-86
2022/09/25 11:50:10;;;;;;;11.93;5.87;;;17.10;99.90;;;;;;4339473;28;656483;-87
2022/09/25 11:53:00;;;;;;;8.60;5.40;;;17.60;99.90;;;;;;4345617;28;657885;-86
2022/09/25 11:55:57;;;;;;;8.57;5.53;;;17.80;99.90;;;;;;4335447;28;656809;-86
2022/09/25 11:58:52;;;;;;;13.37;6.07;;;18.10;99.90;;;;;;4318318;28;657384;-86
2022/09/25 12:01:41;;;;;;;9.67;6.57;;;17.60;99.90;;;;;;4347969;28;657374;-87
2022/09/25 12:05:19;;;;;;;9.87;6.83;;;18.40;99.90;;;;;;4348506;28;656723;-86
2022/09/25 12:08:16;;;;;;;11.53;6.77;;;18.30;99.90;;;;;;4322731;28;656366;-86
2022/09/25 12:11:10;;;;;;;12.13;6.70;;;17.50;99.90;;;;;;4352416;28;657767;-86
2022/09/25 12:14:02;;;;;;;11.27;7.40;;;17.80;99.90;;;;;;4337309;28;657755;-86
2022/09/25 12:16:52;;;;;;;10.93;7.50;;;18.10;99.90;;;;;;4345477;28;657720;-88
2022/09/25 12:19:45;;;;;;;13.93;7.37;;;17.80;99.90;;;;;;4346189;28;658751;-88
2022/09/25 12:22:43;;;;;;;10.73;7.87;;;17.70;99.90;;;;;;4342107;28;657753;-87
2022/09/25 12:25:37;;;;;;;11.10;7.57;;;17.40;99.90;;;;;;4339547;28;657684;-86
2022/09/25 12:28:30;;;;;;;11.75;7.43;;;17.10;99.90;;;;;;4346342;28;657380;-87
2022/09/25 12:31:23;;;;;;;14.17;7.87;;;17.10;99.90;;;;;;4350154;28;657762;-87
2022/09/25 12:34:22;;;;;;;11.83;6.90;;;17.30;99.90;;;;;;4358943;28;657907;-87
2022/09/25 12:37:19;;;;;;;11.27;6.15;;;17.60;99.90;;;;;;4357214;28;658197;-87
2022/09/25 12:40:15;;;;;;;11.77;5.50;;;17.60;99.90;;;;;;4356005;28;657684;-87
2022/09/25 12:43:03;;;;;;;8.27;5.80;;;17.30;99.90;;;;;;4352879;28;658065;-84
2022/09/25 12:45:55;;;;;;;9.73;6.43;;;17.30;99.90;;;;;;4357553;28;657337;-87
2022/09/25 12:48:44;;;;;;;12.73;6.60;;;16.80;99.90;;;;;;4362132;28;656601;-88
2022/09/25 12:51:34;;;;;;;9.33;6.00;;;16.90;99.90;;;;;;4359727;28;657547;-88
2022/09/25 12:54:23;;;;;;;11.30;6.93;;;17.00;99.90;;;;;;4362984;28;657226;-89
2022/09/25 12:57:12;;;;;;;13.23;6.83;;;16.60;99.90;;;;;;4354413;28;657937;-86
2022/09/25 13:00:02;;;;;;;11.77;5.90;;;16.40;99.90;;;;;;4361933;28;657369;-86
2022/09/25 13:02:54;;;;;;;10.93;6.77;;;16.40;99.90;;;;;;4358741;28;658987;-87
2022/09/25 13:05:43;;;;;;;15.63;7.20;;;16.10;99.90;;;;;;4349525;28;657989;-86
2022/09/25 13:08:33;;;;;;;12.87;8.30;;;16.00;99.90;;;;;;4348356;28;657482;-87
2022/09/25 13:11:28;;;;;;;12.97;7.47;;;15.80;99.90;;;;;;4341375;28;657444;-87
2022/09/25 13:14:26;;;;;;;19.17;7.13;;;15.50;99.90;;;;;;4311578;28;657636;-87
2022/09/25 13:17:14;;;;;;;11.83;7.77;;;15.30;99.90;;;;;;4335053;28;658972;-88
2022/09/25 13:20:45;;;;;;;11.83;6.87;;;15.20;99.90;;;;;;4338597;28;657666;-87
2022/09/25 13:23:34;;;;;;;10.07;6.23;;;15.10;99.90;;;;;;4347540;28;657605;-88
2022/09/25 13:26:25;;;;;;;8.27;5.77;;;15.10;99.90;;;;;;4345043;28;657675;-88
2022/09/25 13:29:20;;;;;;;8.77;5.70;;;14.80;99.90;;;;;;4344893;28;656767;-88
2022/09/25 13:32:12;;;;;;;7.73;5.60;;;14.80;99.90;;;;;;4330888;28;656861;-90
2022/09/25 13:35:03;;;;;;;8.80;5.93;;;14.90;99.90;;;;;;4360003;28;657057;-87
2022/09/25 13:37:53;;;;;;;10.77;6.00;;;15.10;99.90;;;;;;4352490;28;656820;-86
2022/09/25 13:40:42;;;;;;;11.20;7.50;;;15.10;99.90;;;;;;4341259;28;657542;-87
2022/09/25 13:43:29;;;;;;;13.30;7.80;;;15.20;99.90;;;;;;4361603;28;657618;-88
2022/09/25 13:46:23;;;;;;;13.43;8.43;;;15.20;99.90;;;;;;4332065;28;657530;-87
2022/09/25 13:49:34;;;;;;;13.10;8.27;;;15.20;99.90;;;;;;4343330;28;657436;-88
2022/09/25 13:52:30;;;;;;;16.23;10.18;;;15.40;99.90;;;;;;4335115;28;658377;-87
2022/09/25 13:55:19;;;;;;;16.10;9.23;;;15.40;99.90;;;;;;4346057;28;659417;-87
2022/09/25 13:58:16;;;;;;;14.77;8.77;;;15.30;99.90;;;;;;4344917;28;657939;-86
2022/09/25 14:01:10;;;;;;;17.43;11.03;;;15.30;99.90;;;;;;4340003;28;658455;-86
2022/09/25 14:03:57;;;;;;;15.37;10.37;;;15.10;99.90;;;;;;4341953;28;659763;-84
2022/09/25 14:06:46;;;;;;;16.77;9.53;;;15.10;99.90;;;;;;4354111;28;658969;-85
2022/09/25 14:09:33;;;;;;;15.03;8.77;;;15.00;99.90;;;;;;4365948;28;658226;-85
2022/09/25 14:12:41;;;;;;;15.07;9.50;;;15.00;99.90;;;;;;4338121;28;658060;-85
2022/09/25 14:15:31;;;;;;;13.67;8.53;;;15.00;99.90;;;;;;4336230;28;658143;-84
2022/09/25 14:18:19;;;;;;;16.43;8.77;;;14.90;99.90;;;;;;4329240;28;657845;-84
2022/09/25 14:21:08;;;;;;;14.27;8.27;;;14.80;99.90;;;;;;4340964;28;657778;-84
2022/09/25 14:23:56;;;;;;;14.37;8.60;;;14.70;99.90;;;;;;4341391;28;657438;-84
2022/09/25 14:26:44;;;;;;;15.03;8.50;;;14.60;99.90;;;;;;4364768;28;658164;-83
2022/09/25 14:29:38;;;;;;;12.10;7.23;;;14.50;99.90;;;;;;4334737;28;657432;-83
2022/09/25 14:32:35;;;;;;;10.97;7.57;;;14.60;99.90;;;;;;4319329;28;658510;-83
2022/09/25 14:35:34;;;;;;;12.77;7.50;;;14.60;99.90;;;;;;4335543;28;658102;-84
2022/09/25 14:39:03;;;;;;;11.50;7.90;;;14.60;99.90;;;;;;4335814;28;657663;-83